KCMH/CMH METAR and TAF weather

Enter ICAO airport designator
Station Type Date Time Source
KCMH METAR 2019/06/16 05:51 UTC NOAA

KCMH 160551Z 21011G21KT 10SM -RA FEW010 BKN027 OVC035 20/18 A2981 RMK AO2 SLP090 P0006 60034 T02000183 10206 20200 58009


Station Type Date Time Source
KCMH Decoded METAR 2019/06/16 05:51 UTC NOAA

PORT COLUMBUS INTERNATIONAL AIRPORT, OH, United States (KCMH) 40-00N 82-53W 247M
Jun 16, 2019 - 01:51 AM EDT / 2019.06.16 0551 UTC
Wind: from the SSW (210 degrees) at 13 MPH (11 KT) gusting to 24 MPH (21 KT):0
Visibility: 10 mile(s):0
Sky conditions: overcast
Weather: light rain
Precipitation last hour: 0.06 inches
Temperature: 68.0 F (20.0 C)
Dew Point: 64.9 F (18.3 C)
Relative Humidity: 89%
Pressure (altimeter): 29.81 in. Hg (1009 hPa)
Pressure tendency: 0.03 inches (0.9 hPa) lower than three hours ago
ob: KCMH 160551Z 21011G21KT 10SM -RA FEW010 BKN027 OVC035 20/18 A2981 RMK AO2 SLP090 P0006 60034 T02000183 10206 20200 58009
cycle: 6

Station Type Date Time Source
KCMH TAF 2019/06/16 06:54 UTC NOAA

TAF KCMH 160551Z 1606/1706 20011KT P6SM -SHRA OVC040
FM160700 20008KT P6SM BKN007 OVC035
FM161000 20007KT 5SM SHRA BKN012 OVC040
FM161600 22009KT P6SM VCSH OVC025
FM162100 24006KT P6SM BKN035
FM170000 23004KT P6SM BKN100

Example: see airport list